Time;durP1;ratioP1;P1;durP2;ratioP2;P2;SDS_P1;SDS_P2;PMS_P1;PMS_P2;Temp;Humidity;BMP_temperature;BMP_pressure;BME280_temperature;BME280_humidity;BME280_pressure;Samples;Min_cycle;Max_cycle;Signal;HPM_P1;HPM_P2
2021/04/10 00:00:40;;;;;;;12.32;7.90;;;9.70;75.90;;;;;;5070817;28;20021;-79
2021/04/10 00:03:07;;;;;;;12.27;8.55;;;9.80;75.90;;;;;;5068868;28;20028;-81
2021/04/10 00:05:33;;;;;;;9.05;7.88;;;9.70;76.10;;;;;;5070274;28;20413;-78
2021/04/10 00:07:59;;;;;;;13.10;7.85;;;9.70;76.20;;;;;;5071496;28;20025;-80
2021/04/10 00:10:27;;;;;;;14.25;8.43;;;9.70;76.60;;;;;;5070864;28;20394;-82
2021/04/10 00:12:53;;;;;;;13.65;8.90;;;9.70;76.50;;;;;;5070547;28;20021;-83
2021/04/10 00:15:20;;;;;;;11.85;8.20;;;9.70;76.70;;;;;;5070916;28;20107;-80
2021/04/10 00:17:45;;;;;;;15.98;8.73;;;9.70;77.00;;;;;;5071384;28;20032;-79
2021/04/10 00:20:14;;;;;;;13.93;8.35;;;9.70;77.10;;;;;;5070609;28;20370;-80
2021/04/10 00:22:40;;;;;;;9.50;7.93;;;9.60;77.30;;;;;;5072724;28;20016;-79
2021/04/10 00:25:07;;;;;;;18.20;8.55;;;9.70;77.30;;;;;;5072703;28;20051;-79
2021/04/10 00:27:33;;;;;;;14.27;9.10;;;9.70;77.30;;;;;;5072956;28;20020;-79
2021/04/10 00:29:59;;;;;;;13.45;9.02;;;9.70;77.20;;;;;;5071619;28;20387;-79
2021/04/10 00:32:25;;;;;;;13.10;8.60;;;9.70;77.20;;;;;;5072651;28;20028;-79
2021/04/10 00:34:50;;;;;;;14.25;9.63;;;9.80;77.20;;;;;;5072602;28;20101;-79
2021/04/10 00:37:16;;;;;;;9.95;8.40;;;9.80;77.20;;;;;;5072601;28;20039;-79
2021/04/10 00:39:42;;;;;;;13.68;8.73;;;9.80;77.20;;;;;;5071430;28;20017;-75
2021/04/10 00:42:08;;;;;;;18.63;9.00;;;9.70;77.20;;;;;;5072589;28;20020;-75
2021/04/10 00:44:34;;;;;;;13.40;9.23;;;9.70;77.60;;;;;;5072111;28;20408;-75
2021/04/10 00:47:00;;;;;;;14.10;8.38;;;9.70;77.80;;;;;;5072915;28;20115;-75
2021/04/10 00:49:26;;;;;;;12.50;8.57;;;9.70;77.90;;;;;;5071937;28;20035;-75
2021/04/10 00:51:53;;;;;;;16.25;8.90;;;9.70;77.80;;;;;;5073049;28;20074;-75
2021/04/10 00:54:19;;;;;;;14.77;8.13;;;9.70;77.70;;;;;;5072904;28;20024;-75
2021/04/10 00:56:45;;;;;;;13.10;8.82;;;9.60;77.80;;;;;;5073963;28;20454;-75
2021/04/10 00:59:11;;;;;;;16.17;9.30;;;9.60;77.80;;;;;;5060001;28;20018;-75
2021/04/10 01:01:38;;;;;;;17.38;9.88;;;9.70;77.80;;;;;;5076755;28;20025;-75
2021/04/10 01:04:07;;;;;;;11.10;8.85;;;9.70;77.80;;;;;;5074668;28;20012;-75
2021/04/10 01:06:33;;;;;;;19.55;9.10;;;9.70;77.50;;;;;;5074779;28;20029;-75
2021/04/10 01:08:59;;;;;;;13.73;8.88;;;9.70;77.50;;;;;;5074593;28;20052;-75
2021/04/10 01:11:39;;;;;;;14.82;9.18;;;9.70;77.30;;;;;;5074526;28;20032;-75
2021/04/10 01:14:29;;;;;;;17.73;9.77;;;9.80;77.10;;;;;;5074573;28;20027;-75
2021/04/10 01:17:01;;;;;;;13.60;8.55;;;9.80;77.00;;;;;;5074415;28;20031;-75
2021/04/10 01:19:44;;;;;;;16.90;8.80;;;9.80;76.90;;;;;;5074502;28;20052;-75
2021/04/10 01:22:16;;;;;;;21.98;9.25;;;9.80;76.80;;;;;;5074565;28;20087;-75
2021/04/10 01:25:06;;;;;;;12.82;8.38;;;9.80;76.60;;;;;;5072985;28;20059;-75
2021/04/10 01:27:46;;;;;;;15.75;7.65;;;9.80;76.50;;;;;;5053924;28;20044;-75
2021/04/10 01:30:21;;;;;;;9.65;7.22;;;9.90;76.20;;;;;;5073035;28;20036;-75
2021/04/10 01:33:22;;;;;;;14.52;8.55;;;9.90;76.20;;;;;;5074023;28;20087;-75
2021/04/10 01:35:52;;;;;;;14.30;8.00;;;9.90;76.10;;;;;;5061730;28;20123;-74
2021/04/10 01:38:21;;;;;;;12.07;7.82;;;9.90;76.10;;;;;;5072891;28;20048;-75
2021/04/10 01:40:52;;;;;;;10.18;7.72;;;9.90;75.90;;;;;;5074086;28;20028;-75
2021/04/10 01:43:18;;;;;;;11.88;8.23;;;9.90;75.90;;;;;;5074124;28;20021;-75
2021/04/10 01:45:46;;;;;;;15.13;8.40;;;9.80;76.00;;;;;;5072721;28;20063;-75
2021/04/10 01:48:14;;;;;;;15.82;7.38;;;9.90;76.00;;;;;;5073858;28;20029;-75
2021/04/10 01:50:41;;;;;;;10.82;7.95;;;9.90;75.90;;;;;;5073864;28;20021;-75
2021/04/10 01:53:08;;;;;;;12.35;7.80;;;9.80;75.70;;;;;;5073669;28;20059;-75
2021/04/10 01:55:35;;;;;;;12.52;8.40;;;9.80;75.60;;;;;;5073940;28;20025;-75
2021/04/10 01:58:01;;;;;;;14.32;7.22;;;9.80;75.80;;;;;;5073411;28;20063;-75
2021/04/10 02:00:31;;;;;;;11.90;7.35;;;9.80;75.70;;;;;;5073783;28;20056;-75
2021/04/10 02:02:58;;;;;;;11.05;7.38;;;9.90;75.70;;;;;;5073808;28;20025;-75
2021/04/10 02:05:26;;;;;;;10.13;7.43;;;9.90;75.60;;;;;;5073688;28;20024;-75
2021/04/10 02:07:52;;;;;;;11.00;6.82;;;9.80;75.40;;;;;;5073424;28;20510;-75
2021/04/10 02:10:23;;;;;;;10.27;7.07;;;9.80;75.50;;;;;;5068639;28;20055;-75
2021/04/10 02:12:51;;;;;;;8.02;7.00;;;9.80;75.80;;;;;;5069454;28;20032;-75
2021/04/10 02:15:17;;;;;;;10.27;6.88;;;9.80;75.90;;;;;;5073002;28;20286;-75
2021/04/10 02:17:43;;;;;;;10.68;6.78;;;9.80;75.80;;;;;;5087722;28;20032;-75
2021/04/10 02:20:12;;;;;;;12.68;7.22;;;9.80;75.90;;;;;;5090217;28;20020;-75
2021/04/10 02:22:45;;;;;;;9.35;6.78;;;9.80;75.90;;;;;;5090280;28;20490;-75
2021/04/10 02:25:11;;;;;;;11.50;6.90;;;9.80;75.70;;;;;;5091849;28;20036;-75
2021/04/10 02:27:38;;;;;;;9.07;6.47;;;9.70;75.80;;;;;;5087919;28;20499;-75
2021/04/10 02:30:06;;;;;;;12.10;6.85;;;9.70;75.70;;;;;;5071736;28;20060;-75
2021/04/10 02:32:44;;;;;;;9.15;6.47;;;9.80;75.80;;;;;;5072249;28;20040;-75
2021/04/10 02:35:27;;;;;;;11.48;6.38;;;9.80;75.70;;;;;;5072970;28;20036;-75
2021/04/10 02:37:55;;;;;;;12.95;6.68;;;9.80;75.30;;;;;;5073014;28;20035;-75
2021/04/10 02:40:24;;;;;;;9.57;6.30;;;9.80;75.10;;;;;;5072977;28;20028;-75
2021/04/10 02:42:50;;;;;;;10.98;6.22;;;9.80;75.10;;;;;;5072771;28;20028;-75
2021/04/10 02:45:22;;;;;;;7.82;5.65;;;9.80;76.30;;;;;;5072805;28;20025;-75
2021/04/10 02:47:49;;;;;;;10.10;5.93;;;9.80;75.40;;;;;;5072690;28;20021;-75
2021/04/10 02:50:17;;;;;;;11.90;7.15;;;9.80;75.30;;;;;;5072759;28;20024;-75
2021/04/10 02:52:47;;;;;;;10.85;6.10;;;9.80;75.60;;;;;;5072722;28;20028;-75
2021/04/10 02:55:17;;;;;;;8.80;5.28;;;9.70;75.30;;;;;;5073956;28;20020;-75
2021/04/10 02:57:44;;;;;;;6.45;5.03;;;9.70;75.10;;;;;;5072578;28;20074;-75
2021/04/10 03:00:11;;;;;;;6.07;5.47;;;9.70;75.00;;;;;;5071063;28;20031;-75
2021/04/10 03:02:38;;;;;;;7.70;5.45;;;9.70;75.10;;;;;;5072139;28;20391;-75
2021/04/10 03:05:06;;;;;;;10.45;5.60;;;9.80;75.00;;;;;;5071984;28;20028;-75
2021/04/10 03:07:32;;;;;;;7.03;5.07;;;9.80;75.10;;;;;;5072550;28;20479;-75
2021/04/10 03:09:58;;;;;;;8.82;5.35;;;9.80;75.50;;;;;;5072199;28;20032;-75
2021/04/10 03:12:27;;;;;;;6.25;5.55;;;9.70;75.50;;;;;;5072408;28;20063;-75
2021/04/10 03:14:53;;;;;;;8.30;5.30;;;9.70;75.90;;;;;;5071037;28;20028;-75
2021/04/10 03:17:25;;;;;;;9.70;5.32;;;9.70;75.60;;;;;;5072181;28;20056;-75
2021/04/10 03:19:51;;;;;;;9.93;5.45;;;9.60;75.50;;;;;;5072092;28;20027;-75
2021/04/10 03:22:17;;;;;;;13.13;5.63;;;9.70;75.90;;;;;;5070708;28;20082;-75
2021/04/10 03:24:44;;;;;;;9.15;5.05;;;9.70;76.00;;;;;;5072051;28;20045;-75
2021/04/10 03:27:12;;;;;;;6.95;5.32;;;9.70;75.80;;;;;;5072189;28;20025;-75
2021/04/10 03:29:38;;;;;;;9.25;4.88;;;9.70;75.50;;;;;;5071747;28;20032;-75
2021/04/10 03:32:07;;;;;;;11.50;5.38;;;9.70;75.60;;;;;;5071935;28;20062;-75
2021/04/10 03:34:34;;;;;;;8.60;4.88;;;9.70;75.70;;;;;;5070702;28;20060;-75
2021/04/10 03:37:00;;;;;;;9.65;5.63;;;9.70;75.70;;;;;;5071915;28;20509;-75
2021/04/10 03:39:27;;;;;;;6.32;5.32;;;9.70;75.80;;;;;;5070410;28;20182;-75
2021/04/10 03:41:53;;;;;;;7.57;5.05;;;9.70;75.90;;;;;;5071877;28;20073;-75
2021/04/10 03:44:19;;;;;;;9.13;5.22;;;9.80;76.10;;;;;;5071959;28;20156;-75
2021/04/10 03:46:44;;;;;;;17.20;6.80;;;9.70;76.00;;;;;;5070455;28;20186;-75
2021/04/10 03:49:10;;;;;;;11.25;5.63;;;9.70;76.00;;;;;;5070549;28;20051;-75
2021/04/10 03:51:36;;;;;;;7.63;5.47;;;9.70;76.00;;;;;;5070311;28;20028;-75
2021/04/10 03:54:03;;;;;;;11.02;6.15;;;9.70;76.30;;;;;;5071670;28;20281;-75
2021/04/10 03:56:28;;;;;;;11.60;6.22;;;9.70;76.40;;;;;;5070201;28;20525;-75
2021/04/10 03:58:54;;;;;;;6.60;5.63;;;9.70;76.20;;;;;;5071694;28;20059;-75
2021/04/10 04:01:20;;;;;;;12.55;5.50;;;9.70;76.30;;;;;;5071332;28;20125;-75
2021/04/10 04:03:46;;;;;;;10.82;5.82;;;9.70;76.40;;;;;;5070335;28;20386;-75
2021/04/10 04:06:11;;;;;;;7.63;5.60;;;9.70;76.40;;;;;;5071516;28;20459;-75
2021/04/10 04:08:37;;;;;;;7.70;5.57;;;9.70;76.60;;;;;;5071458;28;20035;-75
2021/04/10 04:11:03;;;;;;;7.13;6.07;;;9.70;76.90;;;;;;5071529;28;20108;-75
2021/04/10 04:13:28;;;;;;;8.02;6.45;;;9.80;76.90;;;;;;5071263;28;20086;-75
2021/04/10 04:15:54;;;;;;;7.93;7.05;;;9.80;77.00;;;;;;5071162;28;20031;-75
2021/04/10 04:18:20;;;;;;;9.55;6.47;;;9.80;77.70;;;;;;5070213;28;20048;-75
2021/04/10 04:20:46;;;;;;;9.52;7.07;;;9.80;77.10;;;;;;5071292;28;20126;-75
2021/04/10 04:23:11;;;;;;;12.40;6.75;;;9.70;77.60;;;;;;5069921;28;20118;-75
2021/04/10 04:25:37;;;;;;;15.93;7.90;;;9.70;77.60;;;;;;5071357;28;20028;-75
2021/04/10 04:28:03;;;;;;;9.63;6.55;;;9.70;77.60;;;;;;5071166;28;20470;-75
2021/04/10 04:30:29;;;;;;;16.02;7.22;;;9.70;77.70;;;;;;5071151;28;20046;-75
2021/04/10 04:32:55;;;;;;;8.85;6.47;;;9.70;77.90;;;;;;5071356;28;20099;-75
2021/04/10 04:35:21;;;;;;;13.07;7.43;;;9.70;78.00;;;;;;5071034;28;20657;-75
2021/04/10 04:37:46;;;;;;;10.60;7.60;;;9.70;78.20;;;;;;5071225;28;20097;-75
2021/04/10 04:40:13;;;;;;;12.85;8.23;;;9.60;78.50;;;;;;5071108;28;20075;-75
2021/04/10 04:42:39;;;;;;;13.07;8.27;;;9.60;78.70;;;;;;5071135;28;20031;-75
2021/04/10 04:45:06;;;;;;;15.55;8.07;;;9.60;79.00;;;;;;5071168;28;20399;-75
2021/04/10 04:47:33;;;;;;;15.90;8.27;;;9.70;79.00;;;;;;5073543;28;20475;-75
2021/04/10 04:49:59;;;;;;;14.02;8.07;;;9.70;79.10;;;;;;5070995;28;20101;-75
2021/04/10 04:52:27;;;;;;;12.18;9.15;;;9.70;79.00;;;;;;5069643;28;20057;-75
2021/04/10 04:54:52;;;;;;;18.15;9.88;;;9.70;79.00;;;;;;5071087;28;20101;-75
2021/04/10 04:57:18;;;;;;;15.23;9.90;;;9.70;79.00;;;;;;5070853;28;20079;-75
2021/04/10 04:59:44;;;;;;;16.50;8.68;;;9.80;79.00;;;;;;5070862;28;20028;-75
2021/04/10 05:02:09;;;;;;;14.88;8.95;;;9.80;79.00;;;;;;5071034;28;20021;-75
2021/04/10 05:04:35;;;;;;;19.38;10.00;;;9.80;79.00;;;;;;5070899;28;20023;-75
2021/04/10 05:07:00;;;;;;;12.52;9.60;;;9.90;78.90;;;;;;5071008;28;20250;-75
2021/04/10 05:09:26;;;;;;;15.70;8.57;;;9.90;79.20;;;;;;5070731;28;20020;-76
2021/04/10 05:11:52;;;;;;;11.68;9.07;;;9.90;80.30;;;;;;5070727;28;20078;-75
2021/04/10 05:14:18;;;;;;;15.70;9.80;;;9.80;80.00;;;;;;5069616;28;20062;-75
2021/04/10 05:16:43;;;;;;;15.10;9.75;;;9.90;79.60;;;;;;5070912;28;20028;-75
2021/04/10 05:19:09;;;;;;;11.77;8.52;;;9.90;79.80;;;;;;5069308;28;20031;-75
2021/04/10 05:21:35;;;;;;;14.18;9.98;;;9.90;80.20;;;;;;5069732;28;20020;-75
2021/04/10 05:24:00;;;;;;;11.55;8.38;;;9.90;80.60;;;;;;5070479;28;20064;-75
2021/04/10 05:26:26;;;;;;;11.75;8.30;;;9.90;80.00;;;;;;5071020;28;20352;-75
2021/04/10 05:28:52;;;;;;;10.43;7.93;;;9.90;80.20;;;;;;5074233;28;20081;-75
2021/04/10 05:31:17;;;;;;;13.57;7.13;;;9.90;80.40;;;;;;5074065;28;20051;-75
2021/04/10 05:33:46;;;;;;;9.98;7.43;;;9.90;80.40;;;;;;5074172;28;20070;-75
2021/04/10 05:36:12;;;;;;;10.50;7.32;;;9.90;80.60;;;;;;5074167;28;20035;-75
2021/04/10 05:38:38;;;;;;;12.38;6.93;;;9.90;80.60;;;;;;5072851;28;20025;-75
2021/04/10 05:41:05;;;;;;;10.70;8.00;;;9.80;81.30;;;;;;5073939;28;20536;-75
2021/04/10 05:43:31;;;;;;;15.25;7.75;;;9.80;80.90;;;;;;5074174;28;20073;-75
2021/04/10 05:45:56;;;;;;;17.30;8.55;;;9.90;81.10;;;;;;5074017;28;20021;-75
2021/04/10 05:48:22;;;;;;;14.43;8.18;;;9.90;80.80;;;;;;5073886;28;20029;-75
2021/04/10 05:50:48;;;;;;;14.10;8.25;;;9.90;81.60;;;;;;5073940;28;20032;-75
2021/04/10 05:53:13;;;;;;;11.48;8.52;;;10.00;81.30;;;;;;5073668;28;20099;-75
2021/04/10 05:55:39;;;;;;;16.15;9.27;;;10.00;81.10;;;;;;5073839;28;20548;-75
2021/04/10 05:58:05;;;;;;;17.90;9.85;;;10.10;80.90;;;;;;5073822;28;20060;-75
2021/04/10 06:00:30;;;;;;;19.52;10.07;;;10.20;80.80;;;;;;5073754;28;20471;-75
2021/04/10 06:02:56;;;;;;;23.77;12.43;;;10.20;80.30;;;;;;5073742;28;20074;-76
2021/04/10 06:05:23;;;;;;;16.30;11.50;;;10.30;80.60;;;;;;5072354;28;20036;-75
2021/04/10 06:07:49;;;;;;;22.77;10.50;;;10.30;80.40;;;;;;5073452;28;20271;-75
2021/04/10 06:10:16;;;;;;;18.42;10.63;;;10.30;79.20;;;;;;5073276;28;20493;-75
2021/04/10 06:12:43;;;;;;;15.68;10.30;;;10.30;78.80;;;;;;5072260;28;20516;-75
2021/04/10 06:15:10;;;;;;;15.80;10.18;;;10.30;79.30;;;;;;5072175;28;20417;-75
2021/04/10 06:17:36;;;;;;;14.52;9.57;;;10.40;78.70;;;;;;5072146;28;20093;-75
2021/04/10 06:20:04;;;;;;;13.63;9.40;;;10.40;78.00;;;;;;5071934;28;20048;-75
2021/04/10 06:22:30;;;;;;;11.48;9.07;;;10.40;77.40;;;;;;5072786;28;20013;-75
2021/04/10 06:24:56;;;;;;;14.18;9.13;;;10.50;77.30;;;;;;5071490;28;20047;-79
2021/04/10 06:27:21;;;;;;;14.27;8.52;;;10.60;77.00;;;;;;5073380;28;20020;-79
2021/04/10 06:29:47;;;;;;;12.52;8.68;;;10.60;77.00;;;;;;5073362;28;20029;-79
2021/04/10 06:32:13;;;;;;;9.93;8.48;;;10.60;76.00;;;;;;5072795;28;20024;-79
2021/04/10 06:34:38;;;;;;;11.68;8.00;;;10.60;76.30;;;;;;5074111;28;20389;-79
2021/04/10 06:37:04;;;;;;;11.38;8.38;;;10.70;74.70;;;;;;5073595;28;20025;-79
2021/04/10 06:39:30;;;;;;;18.05;9.65;;;10.70;75.40;;;;;;5070178;28;20466;-79
2021/04/10 06:41:56;;;;;;;14.48;9.13;;;10.70;75.80;;;;;;5072489;28;20466;-79
2021/04/10 06:44:22;;;;;;;11.18;8.43;;;10.70;75.80;;;;;;5072899;28;20388;-79
2021/04/10 06:46:49;;;;;;;14.23;8.85;;;10.80;75.80;;;;;;5072737;28;20028;-79
2021/04/10 06:49:16;;;;;;;15.68;9.52;;;10.80;75.60;;;;;;5071169;28;20024;-79
2021/04/10 06:51:42;;;;;;;27.40;10.98;;;10.90;75.00;;;;;;5072094;28;20024;-79
2021/04/10 06:54:08;;;;;;;15.05;9.32;;;10.90;74.60;;;;;;5071815;28;20077;-79
2021/04/10 06:56:38;;;;;;;21.27;11.02;;;10.90;73.20;;;;;;5073814;28;20027;-79
2021/04/10 06:59:28;;;;;;;13.50;9.00;;;11.00;72.90;;;;;;5073987;28;20048;-79
2021/04/10 07:01:54;;;;;;;15.48;9.82;;;11.00;73.70;;;;;;5074002;28;20024;-79
2021/04/10 07:04:21;;;;;;;12.90;9.48;;;11.00;73.50;;;;;;5073990;28;20032;-79
2021/04/10 07:06:47;;;;;;;16.45;10.32;;;11.00;73.60;;;;;;5072714;28;20628;-79
2021/04/10 07:09:13;;;;;;;15.73;9.95;;;11.00;74.10;;;;;;5073848;28;20059;-79
2021/04/10 07:11:40;;;;;;;7.97;5.00;;;11.00;74.50;;;;;;5073713;28;20024;-78
2021/04/10 07:14:06;;;;;;;10.77;6.65;;;11.20;76.60;;;;;;5072304;28;20439;-78
2021/04/10 07:16:40;;;;;;;12.85;6.60;;;11.50;77.00;;;;;;5073676;28;20115;-78
2021/04/10 07:19:10;;;;;;;16.02;10.18;;;11.70;75.60;;;;;;5073793;28;20078;-78
2021/04/10 07:21:36;;;;;;;17.45;9.68;;;11.60;75.30;;;;;;5072200;28;20141;-78
2021/04/10 07:24:02;;;;;;;13.65;9.25;;;11.80;75.10;;;;;;5073300;28;20128;-78
2021/04/10 07:26:49;;;;;;;21.73;9.23;;;11.90;75.20;;;;;;5073454;28;20070;-73
2021/04/10 07:29:33;;;;;;;12.48;9.40;;;12.00;74.10;;;;;;5054580;28;20033;-73
2021/04/10 07:32:00;;;;;;;11.13;8.23;;;12.00;73.70;;;;;;5050537;28;20568;-74
2021/04/10 07:34:28;;;;;;;10.90;7.85;;;12.10;73.80;;;;;;5052544;28;20028;-73
2021/04/10 07:37:03;;;;;;;13.48;9.48;;;12.10;73.60;;;;;;5052424;28;20044;-73
2021/04/10 07:39:45;;;;;;;14.43;8.20;;;12.10;72.30;;;;;;5052446;28;20082;-73
2021/04/10 07:42:11;;;;;;;17.00;8.43;;;12.10;72.70;;;;;;5069826;28;20021;-73
2021/04/10 07:44:39;;;;;;;16.10;9.13;;;12.20;72.50;;;;;;5071654;28;20032;-73
2021/04/10 07:47:07;;;;;;;13.23;9.75;;;12.20;71.70;;;;;;5070794;28;20020;-78
2021/04/10 07:49:33;;;;;;;14.73;9.25;;;12.10;72.10;;;;;;5070906;28;20028;-78
2021/04/10 07:52:04;;;;;;;16.88;9.15;;;12.00;72.60;;;;;;5072610;28;20390;-78
2021/04/10 07:54:43;;;;;;;14.63;10.10;;;12.10;72.60;;;;;;5071698;28;20039;-77
2021/04/10 07:57:12;;;;;;;17.17;10.35;;;12.00;73.00;;;;;;5071597;28;20567;-79
2021/04/10 07:59:49;;;;;;;16.95;9.63;;;12.00;73.90;;;;;;5073205;28;20108;-79
2021/04/10 08:02:16;;;;;;;17.67;9.35;;;12.00;73.20;;;;;;5072290;28;20025;-79
2021/04/10 08:04:57;;;;;;;18.77;11.15;;;12.00;73.20;;;;;;5071078;28;20031;-79
2021/04/10 08:07:26;;;;;;;16.85;10.60;;;12.00;74.70;;;;;;5069891;28;20044;-75
2021/04/10 08:10:04;;;;;;;19.88;10.73;;;12.00;73.80;;;;;;5069591;28;20028;-75
2021/04/10 08:12:33;;;;;;;17.92;9.65;;;12.00;72.70;;;;;;5069748;28;20036;-75
2021/04/10 08:14:59;;;;;;;17.95;9.85;;;12.00;73.30;;;;;;5069716;28;20028;-75
2021/04/10 08:17:39;;;;;;;15.27;9.55;;;12.00;73.30;;;;;;5068187;28;20570;-76
2021/04/10 08:20:25;;;;;;;13.80;9.77;;;12.10;73.60;;;;;;5068352;28;20040;-76
2021/04/10 08:22:52;;;;;;;16.95;9.48;;;12.20;72.90;;;;;;5070648;28;20028;-75
2021/04/10 08:25:30;;;;;;;13.88;8.85;;;12.20;73.40;;;;;;5071417;28;20047;-75
2021/04/10 08:27:57;;;;;;;17.08;9.73;;;12.30;73.40;;;;;;5066444;28;20021;-75
2021/04/10 08:30:24;;;;;;;13.82;9.13;;;12.40;71.00;;;;;;5051589;28;20375;-75
2021/04/10 08:32:49;;;;;;;11.68;8.43;;;12.50;72.10;;;;;;5050073;28;20021;-75
2021/04/10 08:35:15;;;;;;;15.20;9.18;;;12.60;70.80;;;;;;5051238;28;20075;-75
2021/04/10 08:37:42;;;;;;;19.23;8.88;;;12.70;70.70;;;;;;5050104;28;20055;-75
2021/04/10 08:40:10;;;;;;;16.23;9.48;;;12.80;70.40;;;;;;5051085;28;20108;-75
2021/04/10 08:42:40;;;;;;;17.48;9.80;;;13.00;70.60;;;;;;5051135;28;20368;-75
2021/04/10 08:45:07;;;;;;;15.10;8.90;;;13.10;68.90;;;;;;5068080;28;20020;-75
2021/04/10 08:47:33;;;;;;;13.93;8.23;;;13.10;67.10;;;;;;5071575;28;20458;-75
2021/04/10 08:49:59;;;;;;;16.38;10.00;;;13.20;66.60;;;;;;5071210;28;20055;-75
2021/04/10 08:52:31;;;;;;;16.63;9.20;;;13.30;67.00;;;;;;5060150;28;20025;-75
2021/04/10 08:54:58;;;;;;;17.35;9.38;;;13.50;66.90;;;;;;5059335;28;20387;-75
2021/04/10 08:57:39;;;;;;;11.35;8.30;;;13.50;66.40;;;;;;5071177;28;20052;-75
2021/04/10 09:00:20;;;;;;;13.13;8.30;;;13.60;66.10;;;;;;5053791;28;20361;-75
2021/04/10 09:02:58;;;;;;;15.77;8.65;;;13.60;62.40;;;;;;5060122;28;20028;-75
2021/04/10 09:05:44;;;;;;;11.48;6.25;;;13.60;63.70;;;;;;5074797;28;20024;-75
2021/04/10 09:08:25;;;;;;;10.75;6.05;;;13.60;59.30;;;;;;5073572;28;20021;-75
2021/04/10 09:10:52;;;;;;;12.38;6.35;;;13.70;55.70;;;;;;5074767;28;20027;-75
2021/04/10 09:13:19;;;;;;;15.60;6.35;;;13.80;57.50;;;;;;5074615;28;20025;-75
2021/04/10 09:15:45;;;;;;;10.35;6.45;;;13.90;59.70;;;;;;5074797;28;20020;-75
2021/04/10 09:18:13;;;;;;;10.05;6.20;;;13.90;58.10;;;;;;5073460;28;20032;-75
2021/04/10 09:20:45;;;;;;;15.15;6.80;;;14.00;58.40;;;;;;5069122;28;20017;-75
2021/04/10 09:23:29;;;;;;;7.72;5.53;;;14.10;57.70;;;;;;5072193;28;20800;-75
2021/04/10 09:26:08;;;;;;;7.38;3.50;;;14.20;58.20;;;;;;5072628;28;20158;-75
2021/04/10 09:28:34;;;;;;;8.60;3.80;;;14.30;50.80;;;;;;5074392;28;20051;-75
2021/04/10 09:31:03;;;;;;;6.90;4.70;;;14.30;50.90;;;;;;5074107;28;20108;-75
2021/04/10 09:33:33;;;;;;;9.32;4.90;;;14.20;52.10;;;;;;5074074;28;20422;-75
2021/04/10 09:36:00;;;;;;;4.30;3.90;;;14.20;53.30;;;;;;5074129;28;20027;-75
2021/04/10 09:38:43;;;;;;;4.82;4.13;;;14.30;52.20;;;;;;5074205;28;20031;-75
2021/04/10 09:41:11;;;;;;;11.95;3.75;;;14.40;52.50;;;;;;5072321;28;20021;-75
2021/04/10 09:44:06;;;;;;;9.45;5.18;;;14.40;51.90;;;;;;5065500;28;20132;-75
2021/04/10 09:46:33;;;;;;;11.15;5.20;;;14.50;53.20;;;;;;5052878;28;20033;-75
2021/04/10 09:48:59;;;;;;;6.10;3.78;;;14.40;53.00;;;;;;5052555;28;20036;-75
2021/04/10 09:51:25;;;;;;;5.88;3.78;;;14.60;50.60;;;;;;5052525;28;20383;-75
2021/04/10 09:53:52;;;;;;;5.90;4.35;;;14.60;50.30;;;;;;5052751;28;20024;-74
2021/04/10 09:56:19;;;;;;;7.38;3.72;;;14.60;49.30;;;;;;5052516;28;20090;-75
2021/04/10 09:58:50;;;;;;;10.55;4.75;;;14.70;49.90;;;;;;5065834;28;20024;-75
2021/04/10 10:01:26;;;;;;;11.68;4.75;;;14.80;47.80;;;;;;5063024;28;20021;-75
2021/04/10 10:03:52;;;;;;;8.57;4.50;;;14.80;46.70;;;;;;5059206;28;20531;-75
2021/04/10 10:06:22;;;;;;;7.78;4.82;;;14.80;47.70;;;;;;5061909;28;20029;-75
2021/04/10 10:08:48;;;;;;;13.10;4.57;;;14.80;48.10;;;;;;5072494;28;20028;-75
2021/04/10 10:11:15;;;;;;;7.32;4.18;;;14.90;49.50;;;;;;5072251;28;20024;-75
2021/04/10 10:13:42;;;;;;;5.88;4.90;;;14.90;48.60;;;;;;5073358;28;20028;-75
2021/04/10 10:16:08;;;;;;;9.85;5.25;;;15.00;48.80;;;;;;5072521;28;20502;-75
2021/04/10 10:18:42;;;;;;;8.38;5.03;;;14.90;48.30;;;;;;5068192;28;20029;-75
2021/04/10 10:21:12;;;;;;;10.27;5.38;;;14.70;48.60;;;;;;5052028;28;20009;-75
2021/04/10 10:23:41;;;;;;;8.65;5.97;;;14.90;49.10;;;;;;5051673;28;20052;-75
2021/04/10 10:26:24;;;;;;;9.20;5.25;;;15.10;50.80;;;;;;5051982;28;20021;-75
2021/04/10 10:28:50;;;;;;;;;;;15.20;48.20;;;;;;5063341;28;20107;-75
2021/04/10 10:31:19;;;;;;;12.35;5.82;;;15.30;49.10;;;;;;5064050;28;19904;-75
2021/04/10 10:33:45;;;;;;;7.97;5.13;;;15.30;48.40;;;;;;5070328;28;20024;-75
2021/04/10 10:36:13;;;;;;;10.70;5.80;;;15.50;48.10;;;;;;5071177;28;20021;-75
2021/04/10 10:38:49;;;;;;;6.90;4.40;;;15.40;46.20;;;;;;5072522;28;20066;-75
2021/04/10 10:41:17;;;;;;;8.35;5.07;;;15.40;47.70;;;;;;5076190;28;20442;-75
2021/04/10 10:43:43;;;;;;;7.13;4.45;;;15.50;49.20;;;;;;5073468;28;20108;-74
2021/04/10 10:46:18;;;;;;;4.85;4.40;;;15.50;49.80;;;;;;5074614;28;20016;-75
2021/04/10 10:48:46;;;;;;;6.93;4.65;;;15.60;50.60;;;;;;5075015;28;20091;-74
2021/04/10 10:51:18;;;;;;;6.80;5.03;;;16.00;49.20;;;;;;5087087;28;20024;-74
2021/04/10 10:53:49;;;;;;;7.28;4.05;;;16.10;47.40;;;;;;5078831;28;20016;-75
2021/04/10 10:56:19;;;;;;;6.45;4.40;;;16.20;46.80;;;;;;5071280;28;20025;-74
2021/04/10 10:58:50;;;;;;;5.50;3.90;;;16.30;45.70;;;;;;5101121;27;20054;-74
2021/04/10 11:01:20;;;;;;;6.45;3.78;;;16.30;46.00;;;;;;5073116;28;20016;-75
2021/04/10 11:04:17;;;;;;;9.00;4.22;;;16.30;45.80;;;;;;5069608;28;20032;-75
2021/04/10 11:06:55;;;;;;;6.45;4.20;;;16.20;45.20;;;;;;5071845;28;21194;-75
2021/04/10 11:09:26;;;;;;;7.28;3.60;;;16.30;46.20;;;;;;5072732;28;20036;-74
2021/04/10 11:12:03;;;;;;;6.18;3.50;;;16.50;46.70;;;;;;5071281;28;20043;-75
2021/04/10 11:14:31;;;;;;;4.75;3.90;;;16.60;43.60;;;;;;5072456;28;20086;-75
2021/04/10 11:16:58;;;;;;;6.70;3.75;;;16.60;43.50;;;;;;5070420;28;20457;-75
2021/04/10 11:19:44;;;;;;;6.65;3.70;;;16.70;43.60;;;;;;5072665;28;20036;-75
2021/04/10 11:22:17;;;;;;;7.93;4.40;;;16.70;44.20;;;;;;5073160;28;20040;-74
2021/04/10 11:24:51;;;;;;;3.97;1.90;;;16.60;44.10;;;;;;5070883;28;20044;-75
2021/04/10 11:27:22;;;;;;;2.92;1.73;;;16.50;41.70;;;;;;5073197;28;20020;-74
2021/04/10 11:29:48;;;;;;;2.30;2.20;;;16.40;40.40;;;;;;5053095;28;20052;-74
2021/04/10 11:32:23;;;;;;;2.40;2.03;;;16.50;42.20;;;;;;5052976;28;20783;-74
2021/04/10 11:34:49;;;;;;;3.35;2.10;;;16.60;41.20;;;;;;5053242;28;20017;-75
2021/04/10 11:37:16;;;;;;;3.58;2.05;;;16.80;40.80;;;;;;5052737;28;20025;-75
2021/04/10 11:39:51;;;;;;;3.55;1.63;;;16.90;41.20;;;;;;5064647;28;20109;-75
2021/04/10 11:42:26;;;;;;;3.40;1.20;;;16.80;40.40;;;;;;5075303;28;20366;-75
2021/04/10 11:44:57;;;;;;;4.30;1.45;;;16.80;40.90;;;;;;5073597;28;20116;-74
2021/04/10 11:47:31;;;;;;;6.68;2.75;;;16.80;40.90;;;;;;5074649;28;20032;-75
2021/04/10 11:50:18;;;;;;;3.38;1.50;;;16.70;41.20;;;;;;5090198;28;20020;-78
2021/04/10 11:52:47;;;;;;;3.45;1.40;;;16.70;42.50;;;;;;5092963;28;20020;-78
2021/04/10 11:55:19;;;;;;;1.05;0.93;;;16.70;42.80;;;;;;5093107;28;20028;-78
2021/04/10 11:57:54;;;;;;;2.28;1.60;;;16.70;42.90;;;;;;5088114;28;20054;-78
2021/04/10 12:00:25;;;;;;;3.75;1.20;;;16.80;43.20;;;;;;5072803;28;20115;-78
2021/04/10 12:02:51;;;;;;;2.90;1.15;;;16.80;43.80;;;;;;5072833;28;20471;-79
2021/04/10 12:05:23;;;;;;;4.03;1.50;;;16.80;43.30;;;;;;5071543;28;20032;-78
2021/04/10 12:08:12;;;;;;;2.03;1.05;;;16.80;44.30;;;;;;5073113;28;20440;-78
2021/04/10 12:10:41;;;;;;;3.90;2.65;;;16.60;44.40;;;;;;5073034;28;20471;-78
2021/04/10 12:13:07;;;;;;;3.92;2.33;;;16.60;45.70;;;;;;5073111;28;20060;-78
2021/04/10 12:15:35;;;;;;;5.00;2.50;;;16.60;46.70;;;;;;5072939;28;20103;-78
2021/04/10 12:18:03;;;;;;;5.65;3.17;;;16.40;46.70;;;;;;5071281;28;20029;-78
2021/04/10 12:20:29;;;;;;;3.97;2.90;;;16.40;47.70;;;;;;5072699;28;20017;-78
2021/04/10 12:22:56;;;;;;;9.85;2.78;;;16.40;48.10;;;;;;5087075;28;20028;-78
2021/04/10 12:25:22;;;;;;;7.78;2.90;;;16.40;48.50;;;;;;5091686;28;20058;-78
2021/04/10 12:27:54;;;;;;;6.45;3.22;;;16.30;49.20;;;;;;5074193;28;20103;-78
2021/04/10 12:30:24;;;;;;;6.80;3.70;;;16.20;49.60;;;;;;5070802;28;20032;-78
2021/04/10 12:32:50;;;;;;;7.25;4.18;;;16.20;50.10;;;;;;5072565;28;20081;-78
2021/04/10 12:35:16;;;;;;;9.07;3.88;;;16.30;49.50;;;;;;5072781;28;20107;-78
2021/04/10 12:37:42;;;;;;;8.70;4.00;;;16.30;49.40;;;;;;5075465;28;20039;-78
2021/04/10 12:40:09;;;;;;;8.63;4.70;;;16.30;49.70;;;;;;5076756;28;20020;-78
2021/04/10 12:42:35;;;;;;;7.97;5.43;;;16.30;49.80;;;;;;5087641;28;20032;-78
2021/04/10 12:45:01;;;;;;;7.78;5.60;;;16.30;49.50;;;;;;5097011;28;20034;-78
2021/04/10 12:47:27;;;;;;;8.35;5.70;;;16.20;50.50;;;;;;5081707;28;20028;-78
2021/04/10 12:49:53;;;;;;;18.45;6.63;;;16.20;51.50;;;;;;5076530;28;20484;-78
2021/04/10 12:52:20;;;;;;;9.23;5.80;;;16.20;52.20;;;;;;5082105;28;20031;-78
2021/04/10 12:54:45;;;;;;;7.60;5.88;;;16.20;53.00;;;;;;5096784;28;20370;-78